Terminal Aerodrome Forecast
Issued by NWS Cleveland, OH

Home | Current Version | Previous Version | Graphics & Text | Print | Product List | Glossary On
Versions: 1 2 3 4 5 6 7 8 9 10 11 12 13 14 15 16 17 18 19 20 21 22 23
000
FTUS41 KCLE 150700 AAA
TAFMFD
TAF AMD
KMFD 150702Z 1507/1606 24005KT 6SM BR SCT009 OVC050
     FM151000 24004KT 3SM BR OVC009
      TEMPO 1510/1513 1 1/2SM BR OVC005
     FM151600 15006KT 6SM HZ OVC025=

USA.gov is the U.S. government's official web portal to all federal, state and local government web resources and services.